Time;durP1;ratioP1;P1;durP2;ratioP2;P2;SDS_P1;SDS_P2;PMS_P1;PMS_P2;Temp;Humidity;BMP_temperature;BMP_pressure;BME280_temperature;BME280_humidity;BME280_pressure;Samples;Min_cycle;Max_cycle;Signal;HPM_P1;HPM_P2
2023/08/02 00:02:13;;;;;;;;;1.00;1.00;;;;;20.29;84.12;99855.63;5009814;28;45290;-65
2023/08/02 00:04:38;;;;;;;;;1.75;1.00;;;;;20.25;84.30;99835.22;5000660;28;45234;-65
2023/08/02 00:07:04;;;;;;;;;4.00;2.75;;;;;20.25;85.01;99839.78;5000708;28;46312;-65
2023/08/02 00:09:30;;;;;;;;;2.00;2.00;;;;;20.32;85.09;99835.53;5000783;28;45442;-65
2023/08/02 00:11:56;;;;;;;;;2.00;2.00;;;;;20.35;84.92;99832.56;5000762;28;45356;-65
2023/08/02 00:14:22;;;;;;;;;1.00;1.00;;;;;20.29;85.13;99822.25;5000721;28;45306;-65
2023/08/02 00:16:47;;;;;;;;;1.00;1.00;;;;;20.30;85.05;99815.84;5000510;28;46087;-65
2023/08/02 00:19:12;;;;;;;;;4.00;1.00;;;;;20.19;85.66;99808.63;5000460;28;45433;-65
2023/08/02 00:21:38;;;;;;;;;2.50;0.50;;;;;20.12;85.21;99802.06;5000671;28;45447;-65
2023/08/02 00:24:03;;;;;;;;;2.00;0.50;;;;;20.18;85.94;99802.38;5000336;28;50942;-65
2023/08/02 00:26:29;;;;;;;;;0.00;0.00;;;;;20.08;86.09;99782.50;5000427;28;46198;-65
2023/08/02 00:28:54;;;;;;;;;0.00;0.00;;;;;20.17;85.24;99787.09;5008250;28;45520;-65
2023/08/02 00:31:19;;;;;;;;;0.25;0.00;;;;;20.19;85.94;99795.09;5005748;28;45842;-65
2023/08/02 00:33:45;;;;;;;;;0.50;0.00;;;;;20.04;86.04;99762.06;4998955;28;45524;-65
2023/08/02 00:36:10;;;;;;;;;0.00;0.00;;;;;19.99;86.11;99756.19;4982250;28;46881;-65
2023/08/02 00:38:36;;;;;;;;;0.00;0.00;;;;;20.13;86.32;99787.50;4982577;28;46449;-65
2023/08/02 00:41:05;;;;;;;;;0.00;0.00;;;;;20.02;86.55;99769.47;4982781;28;45633;-65
2023/08/02 00:43:44;;;;;;;;;0.00;0.00;;;;;20.09;86.73;99772.50;4998854;28;45490;-65
2023/08/02 00:46:12;;;;;;;;;0.00;0.00;;;;;20.07;86.73;99774.50;4995549;28;46241;-65
2023/08/02 00:48:38;;;;;;;;;0.00;0.00;;;;;20.03;87.45;99756.78;5000003;28;45327;-65
2023/08/02 00:51:05;;;;;;;;;0.00;0.00;;;;;19.87;87.32;99725.63;5000218;28;45641;-65
2023/08/02 00:53:30;;;;;;;;;0.00;0.00;;;;;19.99;87.59;99742.66;4999135;28;45240;-65
2023/08/02 00:55:57;;;;;;;;;0.00;0.00;;;;;19.99;87.62;99721.00;5000012;28;46762;-65
2023/08/02 00:58:22;;;;;;;;;0.00;0.00;;;;;19.74;87.57;99678.94;5000115;28;45406;-65
2023/08/02 01:00:48;;;;;;;;;0.00;0.00;;;;;19.78;88.05;99677.72;4982371;28;45507;-65
2023/08/02 01:03:14;;;;;;;;;0.00;0.00;;;;;19.72;87.91;99667.38;5000163;28;45551;-65
2023/08/02 01:05:46;;;;;;;;;0.00;0.00;;;;;19.68;88.77;99664.09;5001599;28;47283;-65
2023/08/02 01:08:19;;;;;;;;;0.00;0.00;;;;;19.86;88.46;99699.53;5019861;28;45505;-65
2023/08/02 01:10:59;;;;;;;;;0.00;0.00;;;;;19.89;88.57;99682.19;5019579;28;45520;-65
2023/08/02 01:13:27;;;;;;;;;0.00;0.00;;;;;19.74;88.68;99657.28;5019561;28;45634;-65
2023/08/02 01:15:53;;;;;;;;;0.00;0.00;;;;;19.82;88.71;99665.63;5001680;28;46986;-65
2023/08/02 01:18:19;;;;;;;;;2.00;0.00;;;;;19.70;89.17;99643.16;5019316;28;45288;-64
2023/08/02 01:20:44;;;;;;;;;0.00;0.00;;;;;19.61;89.10;99625.00;5019775;28;45494;-65
2023/08/02 01:23:10;;;;;;;;;0.00;0.00;;;;;19.59;89.30;99621.56;5019411;28;45460;-65
2023/08/02 01:25:37;;;;;;;;;0.00;0.00;;;;;19.59;89.39;99613.47;5019539;28;45404;-65
2023/08/02 01:28:06;;;;;;;;;0.00;0.00;;;;;19.58;89.77;99603.66;5001459;28;45470;-65
2023/08/02 01:30:38;;;;;;;;;0.00;0.00;;;;;19.59;89.79;99611.59;5012059;28;45489;-65
2023/08/02 01:33:04;;;;;;;;;0.00;0.00;;;;;19.57;90.37;99597.34;4999336;28;45505;-65
2023/08/02 01:35:30;;;;;;;;;0.00;0.00;;;;;19.55;90.77;99593.94;4999273;28;45608;-65
2023/08/02 01:37:56;;;;;;;;;1.00;0.00;;;;;19.58;90.66;99585.53;4999496;28;45612;-65
2023/08/02 01:40:21;;;;;;;;;0.00;0.00;;;;;19.33;90.80;99554.38;4999621;28;45322;-65
2023/08/02 01:42:47;;;;;;;;;0.00;0.00;;;;;19.44;90.88;99569.66;4999398;28;45428;-65
2023/08/02 01:45:12;;;;;;;;;0.00;0.00;;;;;19.44;91.24;99564.25;4997757;28;48665;-65
2023/08/02 01:47:38;;;;;;;;;0.00;0.00;;;;;19.38;91.60;99541.31;4997916;28;45294;-65
2023/08/02 01:50:03;;;;;;;;;0.00;0.00;;;;;19.42;91.47;99544.59;4999337;28;45301;-64
2023/08/02 01:52:29;;;;;;;;;0.00;0.00;;;;;19.54;91.60;99559.72;4981326;28;45583;-65
2023/08/02 01:54:54;;;;;;;;;0.00;0.00;;;;;19.56;91.61;99557.75;4997839;28;47091;-65
2023/08/02 01:57:19;;;;;;;;;0.00;0.00;;;;;19.57;91.98;99553.19;4999099;28;45490;-65
2023/08/02 01:59:45;;;;;;;;;0.00;0.00;;;;;19.47;91.84;99542.31;4999583;28;45715;-65
2023/08/02 02:02:10;;;;;;;;;0.00;0.00;;;;;19.55;91.83;99556.03;5008051;28;45413;-65
2023/08/02 02:04:35;;;;;;;;;0.00;0.00;;;;;19.36;91.93;99512.66;4999528;28;45442;-65
2023/08/02 02:07:01;;;;;;;;;0.00;0.00;;;;;19.57;92.04;99528.84;5001306;28;45554;-65
2023/08/02 02:09:26;;;;;;;;;0.00;0.00;;;;;19.65;92.09;99541.69;5001431;28;45348;-65
2023/08/02 02:11:51;;;;;;;;;0.00;0.00;;;;;19.49;92.25;99505.16;5001081;28;45607;-65
2023/08/02 02:14:17;;;;;;;;;0.00;0.00;;;;;19.48;92.22;99508.88;4984569;28;52469;-65
2023/08/02 02:16:42;;;;;;;;;0.00;0.00;;;;;19.43;92.55;99500.31;5002443;28;45332;-65
2023/08/02 02:19:07;;;;;;;;;0.00;0.00;;;;;19.39;92.39;99488.88;5001058;28;45549;-65
2023/08/02 02:21:33;;;;;;;;;0.00;0.00;;;;;19.60;92.62;99509.63;5002238;28;45444;-65
2023/08/02 02:23:58;;;;;;;;;1.75;0.00;;;;;19.65;92.92;99515.47;5002376;28;46400;-65
2023/08/02 02:26:25;;;;;;;;;0.00;0.00;;;;;19.58;92.49;99503.50;5002254;28;45585;-65
2023/08/02 02:28:50;;;;;;;;;0.00;0.00;;;;;19.62;92.53;99497.66;5009911;28;45333;-65
2023/08/02 02:31:16;;;;;;;;;0.50;0.00;;;;;19.50;92.74;99471.69;5008348;28;45564;-65
2023/08/02 02:33:41;;;;;;;;;0.00;0.00;;;;;19.66;92.84;99494.66;5001896;28;47302;-65
2023/08/02 02:36:06;;;;;;;;;0.00;0.00;;;;;19.66;93.32;99491.97;4984171;28;48244;-64
2023/08/02 02:38:32;;;;;;;;;0.00;0.00;;;;;19.58;93.34;99469.16;5002548;28;45369;-65
2023/08/02 02:40:57;;;;;;;;;0.00;0.00;;;;;19.63;93.17;99449.78;5002177;28;45487;-65
2023/08/02 02:43:22;;;;;;;;;0.00;0.00;;;;;19.47;93.37;99411.59;5001932;28;45829;-67
2023/08/02 02:45:48;;;;;;;;;2.00;0.00;;;;;19.32;93.32;99400.28;5002124;28;45437;-65
2023/08/02 02:48:13;;;;;;;;;0.00;0.00;;;;;19.63;93.82;99449.78;5002095;28;45530;-65
2023/08/02 02:50:38;;;;;;;;;0.00;0.00;;;;;19.46;94.07;99410.72;5001990;28;45467;-65
2023/08/02 02:53:04;;;;;;;;;1.00;0.00;;;;;19.47;93.87;99403.47;5001678;28;45406;-65
2023/08/02 02:55:29;;;;;;;;;0.00;0.00;;;;;19.71;94.40;99438.25;5002008;28;45324;-65
2023/08/02 02:57:55;;;;;;;;;0.00;0.00;;;;;19.70;94.67;99429.28;4984384;28;45572;-65
2023/08/02 03:00:20;;;;;;;;;0.00;0.00;;;;;19.71;94.24;99416.59;5001953;28;45345;-65
2023/08/02 03:02:45;;;;;;;;;0.00;0.00;;;;;19.75;94.71;99409.94;5010239;28;45432;-65
2023/08/02 03:05:11;;;;;;;;;0.00;0.00;;;;;19.66;94.66;99389.94;5001448;28;45376;-65
2023/08/02 03:07:36;;;;;;;;;0.00;0.00;;;;;19.79;94.87;99395.97;5001727;28;45333;-65
2023/08/02 03:10:02;;;;;;;;;0.00;0.00;;;;;19.58;95.06;99346.50;5000339;28;45577;-65
2023/08/02 03:12:27;;;;;;;;;0.00;0.00;;;;;19.85;94.82;99383.72;4983750;28;47125;-65
2023/08/02 03:14:52;;;;;;;;;0.00;0.00;;;;;19.86;95.15;99380.00;5000438;28;45325;-65
2023/08/02 03:17:18;;;;;;;;;0.00;0.00;;;;;19.77;95.22;99364.63;5000890;28;45531;-65
2023/08/02 03:19:43;;;;;;;;;0.00;0.00;;;;;19.85;95.22;99366.63;5001349;28;45538;-65
2023/08/02 03:22:09;;;;;;;;;0.00;0.00;;;;;19.76;95.74;99344.84;4999949;28;48342;-65
2023/08/02 03:24:34;;;;;;;;;0.00;0.00;;;;;19.82;95.70;99358.78;4983656;28;45432;-65
2023/08/02 03:26:59;;;;;;;;;0.00;0.00;;;;;19.78;95.77;99340.13;5001494;28;45517;-65
2023/08/02 03:29:25;;;;;;;;;1.00;0.00;;;;;19.95;96.26;99362.91;5013314;28;45443;-65
2023/08/02 03:31:51;;;;;;;;;0.00;0.00;;;;;19.78;95.76;99334.72;5002236;28;45591;-65
2023/08/02 03:34:16;;;;;;;;;0.00;0.00;;;;;19.78;96.00;99325.75;4983493;28;45504;-65
2023/08/02 03:36:44;;;;;;;;;0.00;0.00;;;;;19.94;96.61;99344.09;5001227;28;45474;-65
2023/08/02 03:39:10;;;;;;;;;0.00;0.00;;;;;19.95;96.54;99353.94;5001419;28;45555;-65
2023/08/02 03:41:36;;;;;;;;;0.25;0.00;;;;;19.90;96.67;99338.13;4999517;28;47717;-65
2023/08/02 03:44:02;;;;;;;;;0.00;0.00;;;;;19.75;96.85;99301.66;4999768;28;45397;-65
2023/08/02 03:46:27;;;;;;;;;0.00;0.00;;;;;19.82;96.98;99310.06;5001243;28;45303;-65
2023/08/02 03:48:52;;;;;;;;;0.00;0.00;;;;;19.82;96.63;99310.06;5000816;28;45428;-65
2023/08/02 03:51:18;;;;;;;;;0.00;0.00;;;;;19.90;97.05;99313.75;5000761;28;46317;-64
2023/08/02 03:53:43;;;;;;;;;0.00;0.00;;;;;19.95;97.23;99316.03;4983223;28;45429;-65
2023/08/02 03:56:09;;;;;;;;;0.00;0.00;;;;;19.87;97.34;99289.66;4999794;28;45756;-65
2023/08/02 03:58:35;;;;;;;;;0.00;0.00;;;;;20.08;97.23;99331.94;4999694;28;45536;-65
2023/08/02 04:01:00;;;;;;;;;1.00;0.00;;;;;19.91;97.49;99296.50;5000718;28;45984;-65
2023/08/02 04:03:25;;;;;;;;;0.00;0.00;;;;;19.92;97.65;99289.22;5009263;28;45523;-65
2023/08/02 04:05:51;;;;;;;;;0.00;0.00;;;;;20.01;97.50;99296.47;5000869;28;45593;-64
2023/08/02 04:08:16;;;;;;;;;0.50;0.00;;;;;19.98;97.78;99285.97;4999589;28;45366;-65
2023/08/02 04:10:41;;;;;;;;;0.75;0.00;;;;;20.03;97.54;99290.91;5000503;28;45420;-65
2023/08/02 04:13:07;;;;;;;;;0.00;0.00;;;;;20.19;97.61;99310.13;5000632;28;45424;-65
2023/08/02 04:15:33;;;;;;;;;1.25;0.00;;;;;20.21;97.49;99302.69;5000748;28;45317;-65
2023/08/02 04:17:59;;;;;;;;;0.00;0.00;;;;;20.15;97.79;99296.03;5000592;28;45771;-65
2023/08/02 04:20:25;;;;;;;;;0.00;0.00;;;;;20.11;98.05;99288.31;5000258;28;45415;-65
2023/08/02 04:22:50;;;;;;;;;0.00;0.00;;;;;20.23;97.84;99307.97;5000518;28;45329;-65
2023/08/02 04:25:16;;;;;;;;;0.25;0.00;;;;;20.25;98.27;99306.84;5000577;28;45247;-65
2023/08/02 04:27:41;;;;;;;;;0.00;0.00;;;;;20.28;98.11;99309.25;4999991;28;45580;-65
2023/08/02 04:30:07;;;;;;;;;0.00;0.00;;;;;20.10;98.19;99275.81;5013048;28;45417;-65
2023/08/02 04:32:33;;;;;;;;;0.00;0.00;;;;;20.26;97.81;99289.56;5000458;28;45498;-65
2023/08/02 04:34:58;;;;;;;;;0.00;0.00;;;;;20.26;98.59;99277.88;5000203;28;45440;-65
2023/08/02 04:37:24;;;;;;;;;0.00;0.00;;;;;20.27;98.70;99276.88;4993623;28;45471;-65
2023/08/02 04:39:49;;;;;;;;;0.75;0.00;;;;;20.16;98.44;99256.22;5019940;28;46122;-65
2023/08/02 04:42:18;;;;;;;;;0.00;0.00;;;;;20.36;98.26;99285.00;5002157;28;45436;-66
2023/08/02 04:44:43;;;;;;;;;1.50;0.00;;;;;20.23;98.70;99256.50;5020051;28;45264;-65
2023/08/02 04:47:08;;;;;;;;;0.25;0.00;;;;;20.27;98.71;99261.47;5019989;28;45541;-65
2023/08/02 04:49:35;;;;;;;;;0.00;0.00;;;;;20.23;99.13;99243.81;5019490;28;45444;-65
2023/08/02 04:52:01;;;;;;;;;0.00;0.00;;;;;20.35;98.64;99269.72;5020036;28;45265;-65
2023/08/02 04:54:26;;;;;;;;;1.00;0.00;;;;;20.44;98.80;99269.84;5001975;28;45270;-65
2023/08/02 04:56:51;;;;;;;;;0.00;0.00;;;;;20.49;98.90;99270.25;5002100;28;45553;-65
2023/08/02 04:59:17;;;;;;;;;0.00;0.00;;;;;20.47;99.15;99266.84;5019708;28;45729;-65
2023/08/02 05:01:42;;;;;;;;;0.00;0.00;;;;;20.34;98.93;99246.31;5019638;28;45301;-65
2023/08/02 05:04:08;;;;;;;;;0.00;0.00;;;;;20.46;99.81;99265.09;5001647;28;45590;-65
2023/08/02 05:06:34;;;;;;;;;0.00;0.00;;;;;20.49;99.38;99265.66;5001893;28;45986;-64
2023/08/02 05:09:01;;;;;;;;;0.00;0.00;;;;;20.35;99.61;99231.78;5018371;28;47298;-65
2023/08/02 05:11:27;;;;;;;;;0.00;0.00;;;;;20.50;100.00;99258.41;5019653;28;45617;-65
2023/08/02 05:13:52;;;;;;;;;0.00;0.00;;;;;20.44;99.87;99245.44;5001840;28;45483;-65
2023/08/02 05:16:17;;;;;;;;;0.00;0.00;;;;;20.46;99.83;99238.84;5019466;28;49655;-65
2023/08/02 05:18:43;;;;;;;;;0.00;0.00;;;;;20.56;100.00;99244.22;5019100;28;45390;-65
2023/08/02 05:21:12;;;;;;;;;1.25;0.00;;;;;20.44;100.00;99216.47;5019582;28;45322;-65
2023/08/02 05:23:39;;;;;;;;;1.00;0.00;;;;;20.54;99.57;99213.72;5019375;28;45540;-65
2023/08/02 05:26:05;;;;;;;;;0.00;0.00;;;;;20.59;99.86;99219.53;5019622;28;45412;-65
2023/08/02 05:28:31;;;;;;;;;0.50;0.00;;;;;20.56;100.00;99222.53;5019126;28;45571;-65
2023/08/02 05:30:56;;;;;;;;;0.00;0.00;;;;;20.45;99.88;99187.53;5017967;28;45760;-65
2023/08/02 05:33:21;;;;;;;;;0.00;0.00;;;;;20.52;100.00;99203.03;5001403;28;45422;-65
2023/08/02 05:35:47;;;;;;;;;0.00;0.00;;;;;20.65;100.00;99218.97;5010076;28;45376;-65
2023/08/02 05:38:12;;;;;;;;;0.00;0.00;;;;;20.51;100.00;99185.06;4998080;28;47286;-65
2023/08/02 05:40:37;;;;;;;;;0.00;0.00;;;;;20.46;100.00;99173.81;4981407;28;45435;-64
2023/08/02 05:43:03;;;;;;;;;0.00;0.00;;;;;20.68;100.00;99207.81;4999568;28;45711;-65
2023/08/02 05:45:28;;;;;;;;;0.00;0.00;;;;;20.56;100.00;99187.31;4999214;28;45346;-65
2023/08/02 05:47:53;;;;;;;;;0.00;0.00;;;;;20.58;100.00;99182.63;4999164;28;45364;-65
2023/08/02 05:50:19;;;;;;;;;0.00;0.00;;;;;20.53;100.00;99172.22;4981454;28;45433;-65
2023/08/02 05:52:44;;;;;;;;;0.00;0.00;;;;;20.70;100.00;99202.25;4981624;28;45362;-65
2023/08/02 05:55:10;;;;;;;;;0.00;0.00;;;;;20.69;100.00;99204.09;4999243;28;45386;-65
2023/08/02 05:57:35;;;;;;;;;0.00;0.00;;;;;20.73;100.00;99199.22;4999127;28;45354;-65
2023/08/02 06:00:01;;;;;;;;;0.00;0.00;;;;;20.76;100.00;99200.78;4981420;28;45436;-65
2023/08/02 06:02:26;;;;;;;;;0.00;0.00;;;;;20.82;100.00;99201.03;4989639;28;45314;-65
2023/08/02 06:04:51;;;;;;;;;0.00;0.00;;;;;20.70;100.00;99181.41;4998418;28;55190;-65
2023/08/02 06:07:16;;;;;;;;;0.00;0.00;;;;;20.68;100.00;99172.59;4997648;28;46122;-65
2023/08/02 06:09:42;;;;;;;;;0.00;0.00;;;;;20.82;100.00;99202.88;4981348;28;45919;-65
2023/08/02 06:12:08;;;;;;;;;0.00;0.00;;;;;20.74;100.00;99179.25;4981363;28;45488;-64
2023/08/02 06:14:33;;;;;;;;;0.00;0.00;;;;;20.68;100.00;99159.03;4999141;28;45536;-65
2023/08/02 06:16:58;;;;;;;;;1.00;0.00;;;;;20.67;100.00;99156.47;4998663;28;45429;-65
2023/08/02 06:19:24;;;;;;;;;0.00;0.00;;;;;20.87;100.00;99173.44;4998922;28;45665;-65
2023/08/02 06:21:49;;;;;;;;;0.00;0.00;;;;;20.79;100.00;99159.81;4998885;28;45385;-65
2023/08/02 06:24:15;;;;;;;;;0.00;0.00;;;;;20.82;100.00;99146.78;4998883;28;45347;-65
2023/08/02 06:26:40;;;;;;;;;0.00;0.00;;;;;21.00;100.00;99165.78;4980912;28;47462;-65
2023/08/02 06:29:09;;;;;;;;;2.00;0.25;;;;;20.81;100.00;99131.50;5003508;28;45575;-65
2023/08/02 06:31:34;;;;;;;;;0.00;0.00;;;;;20.83;100.00;99136.78;5014983;28;45399;-65
2023/08/02 06:34:00;;;;;;;;;0.00;0.00;;;;;20.82;100.00;99132.38;5000543;28;45394;-65
2023/08/02 06:36:25;;;;;;;;;0.00;0.00;;;;;20.79;100.00;99130.81;5005322;28;46100;-65
2023/08/02 06:38:50;;;;;;;;;0.00;0.00;;;;;20.82;100.00;99127.81;4998704;28;46831;-65
2023/08/02 06:41:16;;;;;;;;;1.00;0.00;;;;;20.82;100.00;99135.09;4998790;28;45366;-65
2023/08/02 06:43:41;;;;;;;;;0.00;0.00;;;;;20.89;100.00;99144.31;4998667;28;45472;-65
2023/08/02 06:46:07;;;;;;;;;0.00;0.00;;;;;20.93;100.00;99140.25;4998420;28;46321;-65
2023/08/02 06:48:32;;;;;;;;;0.25;0.00;;;;;20.84;100.00;99114.09;4998506;28;45241;-65
2023/08/02 06:50:57;;;;;;;;;0.00;0.00;;;;;21.07;100.00;99166.00;4980802;28;45413;-64
2023/08/02 06:53:23;;;;;;;;;0.00;0.00;;;;;21.00;100.00;99135.94;4984190;28;45914;-65
2023/08/02 06:55:49;;;;;;;;;0.00;0.00;;;;;20.88;100.00;99115.47;5001768;28;46240;-65
2023/08/02 06:58:14;;;;;;;;;0.00;0.00;;;;;20.93;100.00;99102.28;5001999;28;45443;-65
2023/08/02 07:00:40;;;;;;;;;0.00;0.00;;;;;20.95;100.00;99105.72;5001967;28;45341;-65
2023/08/02 07:03:06;;;;;;;;;0.00;0.00;;;;;21.05;100.00;99130.06;5009895;28;45564;-65
2023/08/02 07:05:32;;;;;;;;;0.50;0.00;;;;;20.98;100.00;99118.09;5000268;28;47406;-65
2023/08/02 07:08:01;;;;;;;;;0.00;0.00;;;;;20.97;100.00;99116.41;5001870;28;45443;-65
2023/08/02 07:10:28;;;;;;;;;0.00;0.00;;;;;21.12;100.00;99146.53;5001765;28;45468;-65
2023/08/02 07:12:54;;;;;;;;;0.00;0.00;;;;;21.07;100.00;99136.16;5001602;28;45428;-65
2023/08/02 07:15:20;;;;;;;;;1.00;0.00;;;;;21.08;100.00;99118.88;4983650;28;48262;-65
2023/08/02 07:17:46;;;;;;;;;1.00;0.00;;;;;20.95;100.00;99094.88;4983840;28;45527;-65
2023/08/02 07:20:12;;;;;;;;;0.00;0.00;;;;;21.00;100.00;99102.53;4983721;28;45505;-65
2023/08/02 07:22:39;;;;;;;;;0.00;0.00;;;;;21.11;100.00;99105.00;5001553;28;45755;-65
2023/08/02 07:25:05;;;;;;;;;0.25;0.00;;;;;21.05;100.00;99086.66;5001493;28;45642;-65
2023/08/02 07:27:30;;;;;;;;;0.00;0.00;;;;;21.02;100.00;99073.41;5001504;28;45337;-65
2023/08/02 07:29:56;;;;;;;;;0.00;0.00;;;;;;;;5014590;28;49255;-65
2023/08/02 07:32:25;;;;;;;;;0.00;0.00;;;;;21.25;100.00;99098.13;5001367;28;46083;-65
2023/08/02 07:34:51;;;;;;;;;0.00;0.00;;;;;21.13;100.00;99083.13;5000903;28;46192;-65
2023/08/02 07:37:17;;;;;;;;;0.00;0.00;;;;;21.27;100.00;99098.84;4983637;28;45527;-65
2023/08/02 07:39:42;;;;;;;;;0.00;0.00;;;;;21.22;100.00;99095.75;5001298;28;45372;-65
2023/08/02 07:42:07;;;;;;;;;0.00;0.00;;;;;21.28;100.00;99097.81;5001388;28;45450;-65
2023/08/02 07:44:33;;;;;;;;;0.00;0.00;;;;;21.21;100.00;99077.78;5000845;28;46139;-65
2023/08/02 07:46:58;;;;;;;;;0.00;0.00;;;;;21.30;100.00;99074.13;4983388;28;45343;-65
2023/08/02 07:49:24;;;;;;;;;0.00;0.00;;;;;21.30;100.00;99074.13;4983257;28;45399;-65
2023/08/02 07:51:49;;;;;;;;;0.00;0.00;;;;;21.35;100.00;99095.31;5000959;28;45346;-65
2023/08/02 07:54:14;;;;;;;;;0.00;0.00;;;;;21.35;100.00;99079.03;5000905;28;45654;-65
2023/08/02 07:56:40;;;;;;;;;0.00;0.00;;;;;21.33;100.00;99087.34;4999727;28;45936;-65
2023/08/02 07:59:05;;;;;;;;;0.00;0.00;;;;;21.43;100.00;99092.66;5001135;28;45286;-65
2023/08/02 08:01:30;;;;;;;;;0.00;0.00;;;;;21.35;100.00;99070.91;5005211;28;45552;-65
2023/08/02 08:03:56;;;;;;;;;0.25;0.00;;;;;21.40;100.00;99077.56;5004574;28;45560;-65
2023/08/02 08:06:23;;;;;;;;;0.00;0.00;;;;;21.44;100.00;99078.09;5000956;28;45318;-65
2023/08/02 08:08:49;;;;;;;;;0.00;0.00;;;;;21.54;100.00;99102.47;5000878;28;45428;-65
2023/08/02 08:11:15;;;;;;;;;0.00;0.00;;;;;21.48;100.00;99089.50;5000815;28;45417;-65
2023/08/02 08:13:41;;;;;;;;;0.00;0.00;;;;;21.54;100.00;99095.16;4982803;28;47289;-65
2023/08/02 08:16:06;;;;;;;;;0.00;0.00;;;;;21.49;100.00;99073.06;5000735;28;45392;-65
2023/08/02 08:18:32;;;;;;;;;0.00;0.00;;;;;21.63;100.00;99098.75;5000463;28;45754;-65
2023/08/02 08:20:58;;;;;;;;;0.00;0.00;;;;;21.59;100.00;99097.41;4983041;28;45505;-65
2023/08/02 08:23:23;;;;;;;;;0.00;0.00;;;;;21.67;100.00;99085.72;4999108;28;47015;-65
2023/08/02 08:25:49;;;;;;;;;0.00;0.00;;;;;21.76;100.00;99103.75;4982818;28;45347;-65
2023/08/02 08:28:14;;;;;;;;;0.00;0.00;;;;;21.81;100.00;99102.25;4985137;28;45322;-65
2023/08/02 08:30:39;;;;;;;;;0.00;0.00;;;;;21.86;100.00;99092.78;5011359;28;45245;-65
2023/08/02 08:33:05;;;;;;;;;1.00;0.00;;;;;21.76;100.00;99074.72;4999921;28;46095;-65
2023/08/02 08:35:34;;;;;;;;;0.00;0.00;;;;;21.73;100.00;99069.63;5000307;28;45673;-65
2023/08/02 08:37:59;;;;;;;;;0.00;0.00;;;;;21.89;99.92;99082.44;5000349;28;45455;-65
2023/08/02 08:40:25;;;;;;;;;0.00;0.00;;;;;21.88;99.96;99067.16;5000323;28;45444;-65
2023/08/02 08:42:53;;;;;;;;;0.00;0.00;;;;;21.80;100.00;99050.81;5000144;28;45396;-65
2023/08/02 08:45:20;;;;;;;;;0.00;0.00;;;;;21.88;99.37;99039.16;5000172;28;45310;-65
2023/08/02 08:47:46;;;;;;;;;0.00;0.00;;;;;21.97;99.33;99057.19;4982502;28;45275;-65
2023/08/02 08:50:12;;;;;;;;;0.00;0.00;;;;;21.97;99.64;99046.31;5000098;28;45358;-65
2023/08/02 08:52:40;;;;;;;;;0.00;0.00;;;;;22.02;98.71;99050.22;5000002;28;45273;-65
2023/08/02 08:55:08;;;;;;;;;0.00;0.00;;;;;22.28;98.74;99073.75;4982316;28;45394;-65
2023/08/02 08:57:35;;;;;;;;;0.00;0.00;;;;;22.22;97.85;99055.41;4982431;28;45392;-65
2023/08/02 09:00:03;;;;;;;;;0.00;0.00;;;;;22.28;97.79;99062.91;5000106;28;45432;-65
2023/08/02 09:02:31;;;;;;;;;0.00;0.00;;;;;22.19;97.73;99023.94;4990779;28;47141;-65
2023/08/02 09:04:57;;;;;;;;;0.00;0.00;;;;;22.25;96.33;99016.16;4999703;28;45365;-65
2023/08/02 09:07:23;;;;;;;;;0.00;0.00;;;;;22.47;95.85;99050.88;5000023;28;45667;-65
2023/08/02 09:09:48;;;;;;;;;0.00;0.00;;;;;22.42;96.74;99041.53;4982235;28;45246;-65
2023/08/02 09:12:13;;;;;;;;;1.00;0.00;;;;;22.53;95.93;99042.03;4999739;28;45493;-65
2023/08/02 09:14:39;;;;;;;;;0.00;0.00;;;;;22.48;94.47;99021.81;4999170;28;45346;-65
2023/08/02 09:17:04;;;;;;;;;0.00;0.00;;;;;22.44;93.63;99012.31;4999829;28;45575;-65
2023/08/02 09:19:33;;;;;;;;;0.00;0.00;;;;;22.63;93.72;99047.31;4998381;28;45342;-65
2023/08/02 09:22:14;;;;;;;;;0.00;0.00;;;;;22.73;93.45;99052.59;4998274;28;47245;-65
2023/08/02 09:24:42;;;;;;;;;0.00;0.00;;;;;22.62;93.11;99044.78;4999636;28;45417;-65
2023/08/02 09:27:12;;;;;;;;;0.00;0.00;;;;;22.73;92.57;99050.72;4999780;28;45397;-65
2023/08/02 09:29:48;;;;;;;;;0.00;0.00;;;;;22.83;91.33;99079.66;5012906;28;45635;-65
2023/08/02 09:32:15;;;;;;;;;0.00;0.00;;;;;22.66;90.29;99029.84;4993142;28;47007;-65
2023/08/02 09:34:58;;;;;;;;;0.00;0.00;;;;;22.70;91.09;99028.47;4983235;28;45429;-65
2023/08/02 09:37:35;;;;;;;;;0.00;0.00;;;;;22.85;90.38;99056.69;5008724;28;45337;-65
2023/08/02 09:40:04;;;;;;;;;0.00;0.00;;;;;22.81;89.18;99057.22;4999260;28;45320;-65
2023/08/02 09:42:29;;;;;;;;;0.00;0.00;;;;;22.66;89.49;99025.22;4999331;28;45548;-65
2023/08/02 09:45:03;;;;;;;;;0.00;0.00;;;;;22.72;88.72;99038.16;4999123;28;45424;-65
2023/08/02 09:47:29;;;;;;;;;0.00;0.00;;;;;22.85;87.76;99078.44;4981666;28;45619;-65
2023/08/02 09:50:11;;;;;;;;;0.00;0.00;;;;;22.83;85.82;99039.69;4999174;28;45385;-65
2023/08/02 09:52:40;;;;;;;;;0.00;0.00;;;;;22.75;84.44;99028.78;4999174;28;45435;-65
2023/08/02 09:55:06;;;;;;;;;1.00;0.00;;;;;22.63;85.30;99011.97;4999094;28;45467;-65
2023/08/02 09:57:32;;;;;;;;;0.00;0.00;;;;;22.87;83.16;99037.47;4981481;28;45381;-65
2023/08/02 10:00:06;;;;;;;;;0.00;0.00;;;;;22.84;82.59;99024.22;4997842;28;45950;-65
2023/08/02 10:02:35;;;;;;;;;0.00;0.00;;;;;22.98;82.58;99033.56;5007120;28;45978;-65
2023/08/02 10:05:02;;;;;;;;;0.00;0.00;;;;;23.06;81.59;99052.59;4998729;28;45344;-65
2023/08/02 10:07:43;;;;;;;;;0.00;0.00;;;;;23.13;81.23;99086.31;4999192;28;45284;-65
2023/08/02 10:10:32;;;;;;;;;0.00;0.00;;;;;23.15;80.82;99076.09;4998948;28;45609;-65
2023/08/02 10:13:21;;;;;;;;;0.00;0.00;;;;;22.96;80.97;99060.09;4999002;28;45382;-65
2023/08/02 10:15:51;;;;;;;;;0.00;0.00;;;;;23.05;81.32;99083.56;5004145;28;45424;-65
2023/08/02 10:18:17;;;;;;;;;0.00;0.00;;;;;22.89;77.50;99043.59;5000694;28;45373;-65
2023/08/02 10:20:45;;;;;;;;;0.00;0.00;;;;;22.99;77.57;99062.44;5019019;28;45315;-65
2023/08/02 10:23:10;;;;;;;;;0.00;0.00;;;;;23.02;79.03;99070.28;5018438;28;45503;-65
2023/08/02 10:25:36;;;;;;;;;1.00;1.00;;;;;23.15;77.38;99067.94;5001001;28;45351;-65
2023/08/02 10:28:02;;;;;;;;;0.00;0.00;;;;;23.06;76.25;99052.59;5021534;28;45397;-65
2023/08/02 10:30:29;;;;;;;;;2.00;0.00;;;;;23.02;75.95;99051.22;5015013;28;45743;-66
2023/08/02 10:33:14;;;;;;;;;0.00;0.00;;;;;23.23;75.67;99067.91;5006481;28;47201;-65
2023/08/02 10:36:02;;;;;;;;;1.25;0.00;;;;;23.26;74.60;99067.56;5000870;28;45447;-65
2023/08/02 10:38:27;;;;;;;;;0.00;0.00;;;;;23.31;74.70;99072.50;5002203;28;45333;-65
2023/08/02 10:41:07;;;;;;;;;0.00;0.00;;;;;23.36;74.31;99074.72;5002308;28;45432;-65
2023/08/02 10:43:33;;;;;;;;;0.00;0.00;;;;;23.36;74.00;99052.94;5001868;28;45581;-65
2023/08/02 10:46:19;;;;;;;;;0.00;0.00;;;;;23.49;72.56;99077.75;5002043;28;45318;-65
2023/08/02 10:48:45;;;;;;;;;0.00;0.00;;;;;23.37;72.85;99066.38;5000599;28;45365;-65
2023/08/02 10:51:33;;;;;;;;;0.75;0.00;;;;;23.41;72.84;99070.44;5000517;28;46103;-66
2023/08/02 10:54:14;;;;;;;;;0.00;0.00;;;;;23.52;71.81;99084.72;5001853;28;46580;-66
2023/08/02 10:56:52;;;;;;;;;0.00;0.00;;;;;23.52;70.78;99082.00;4992467;28;45397;-65
2023/08/02 10:59:23;;;;;;;;;2.00;1.00;;;;;23.49;69.21;99078.59;5021754;28;45571;-65
2023/08/02 11:01:57;;;;;;;;;2.00;0.00;;;;;23.38;69.29;99097.19;5021588;28;45254;-65
2023/08/02 11:04:26;;;;;;;;;0.25;0.00;;;;;23.35;67.11;99067.56;5003370;28;47416;-66
2023/08/02 11:06:51;;;;;;;;;2.00;0.00;;;;;23.24;67.52;99083.25;5021722;28;45479;-65
2023/08/02 11:09:17;;;;;;;;;0.00;0.00;;;;;23.29;65.42;99083.56;5003788;28;45538;-65
2023/08/02 11:11:43;;;;;;;;;0.00;0.00;;;;;23.31;64.67;99089.69;5003564;28;45425;-65
2023/08/02 11:14:09;;;;;;;;;1.00;1.00;;;;;23.33;64.66;99102.28;5003508;28;47653;-66
2023/08/02 11:16:41;;;;;;;;;1.75;1.00;;;;;23.22;64.24;99066.22;5003609;28;45388;-66
2023/08/02 11:19:10;;;;;;;;;0.50;0.50;;;;;23.32;62.57;99082.34;5003433;28;45386;-66
2023/08/02 11:21:37;;;;;;;;;1.00;0.00;;;;;23.33;63.59;99083.22;5021198;28;45362;-66
2023/08/02 11:24:03;;;;;;;;;2.25;0.00;;;;;23.21;63.04;99077.28;5021445;28;45472;-65
2023/08/02 11:26:30;;;;;;;;;0.50;0.25;;;;;23.31;63.06;99094.28;5021348;28;45353;-66
2023/08/02 11:28:55;;;;;;;;;2.00;0.50;;;;;23.25;63.87;99079.47;5021555;28;45383;-66
2023/08/02 11:31:24;;;;;;;;;1.00;1.00;;;;;23.40;63.05;99108.72;5006485;28;45316;-66